Time;durP1;ratioP1;P1;durP2;ratioP2;P2;SDS_P1;SDS_P2;PMS_P1;PMS_P2;Temp;Humidity;BMP_temperature;BMP_pressure;BME280_temperature;BME280_humidity;BME280_pressure;Samples;Min_cycle;Max_cycle;Signal;HPM_P1;HPM_P2
2021/01/01 00:01:54;;;;;;;28.03;14.37;;;;;;;9.71;84.76;99602.95;128247;1088;104846;-75
2021/01/01 00:04:23;;;;;;;35.23;18.05;;;;;;;9.75;84.47;99600.41;127879;1090;104467;-75
2021/01/01 00:06:53;;;;;;;37.27;18.00;;;;;;;9.75;84.39;99600.41;128277;1089;104405;-75
2021/01/01 00:09:22;;;;;;;26.13;12.40;;;;;;;9.73;84.48;99591.64;128313;1089;104423;-75
2021/01/01 00:11:51;;;;;;;31.73;14.50;;;;;;;9.71;85.00;99604.70;128312;1089;104426;-75
2021/01/01 00:14:20;;;;;;;32.27;13.50;;;;;;;9.69;84.52;99602.05;128256;1088;104529;-75
2021/01/01 00:16:49;;;;;;;25.33;11.90;;;;;;;9.68;84.49;99599.38;128322;1090;104589;-76
2021/01/01 00:19:18;;;;;;;29.07;12.93;;;;;;;9.66;85.02;99601.05;128292;1089;104464;-74
2021/01/01 00:21:47;;;;;;;28.20;12.00;;;;;;;9.65;84.45;99601.92;128310;1088;104468;-75
2021/01/01 00:24:16;;;;;;;25.97;12.13;;;;;;;9.65;84.54;99597.56;128276;1088;104407;-75
2021/01/01 00:26:51;;;;;;;28.67;11.93;;;;;;;9.66;84.54;99599.34;128283;1088;104404;-75
2021/01/01 00:29:21;;;;;;;26.13;11.30;;;;;;;9.65;84.36;99600.18;128320;1088;104417;-74
2021/01/01 00:31:50;;;;;;;28.37;12.03;;;;;;;9.64;84.55;99608.88;128302;1088;104406;-75
2021/01/01 00:34:19;;;;;;;25.93;11.37;;;;;;;9.64;84.52;99610.63;128329;1088;104480;-74
2021/01/01 00:36:48;;;;;;;28.07;13.07;;;;;;;9.62;85.13;99617.56;127898;1090;104516;-73
2021/01/01 00:39:17;;;;;;;27.47;13.70;;;;;;;9.60;85.11;99620.14;128278;1088;104538;-73
2021/01/01 00:41:46;;;;;;;23.37;12.17;;;;;;;9.61;84.61;99624.52;127872;1090;104407;-75
2021/01/01 00:44:16;;;;;;;26.30;11.27;;;;;;;9.62;85.24;99623.68;128299;1088;104846;-73
2021/01/01 00:46:45;;;;;;;29.10;13.90;;;;;;;9.64;84.60;99627.22;128348;1088;104410;-74
2021/01/01 00:49:14;;;;;;;25.83;12.07;;;;;;;9.66;84.60;99625.54;128304;1088;104397;-74
2021/01/01 00:51:45;;;;;;;22.37;10.70;;;;;;;9.67;85.24;99624.67;128275;1088;104410;-75
2021/01/01 00:54:14;;;;;;;24.00;10.93;;;;;;;9.66;84.61;99625.54;128317;1088;104465;-73
2021/01/01 00:56:43;;;;;;;23.50;10.17;;;;;;;9.64;84.67;99627.22;128336;1088;104519;-74
2021/01/01 00:59:12;;;;;;;24.20;10.77;;;;;;;9.66;85.04;99630.78;128323;1088;104398;-75
2021/01/01 01:01:41;;;;;;;23.77;11.33;;;;;;;9.69;84.63;99628.23;128300;1089;104584;-74
2021/01/01 01:04:10;;;;;;;22.77;11.10;;;;;;;9.68;84.98;99634.31;128299;1089;104401;-74
2021/01/01 01:06:39;;;;;;;26.35;11.50;;;;;;;9.66;84.50;99633.41;128304;1089;104404;-75
2021/01/01 01:09:08;;;;;;;25.20;10.97;;;;;;;9.67;84.57;99637.77;127879;1090;104519;-74
2021/01/01 01:11:37;;;;;;;22.47;10.20;;;;;;;9.68;84.57;99639.55;128332;1088;104515;-74
2021/01/01 01:14:06;;;;;;;22.40;11.33;;;;;;;9.74;84.56;99653.64;128335;1088;104526;-74
2021/01/01 01:16:35;;;;;;;23.47;10.63;;;;;;;9.76;84.60;99665.08;128259;1088;104462;-74
2021/01/01 01:19:04;;;;;;;22.80;10.23;;;;;;;9.79;85.01;99665.15;128325;1088;104445;-74
2021/01/01 01:21:33;;;;;;;24.97;10.97;;;;;;;9.77;85.00;99665.11;128316;1089;104419;-74
2021/01/01 01:24:03;;;;;;;22.20;10.70;;;;;;;9.74;84.73;99666.74;128288;1088;104400;-73
2021/01/01 01:26:35;;;;;;;24.77;11.37;;;;;;;9.71;84.46;99663.21;128272;1089;104462;-74
2021/01/01 01:29:06;;;;;;;23.10;9.90;;;;;;;9.75;85.33;99666.78;128270;1089;104427;-74
2021/01/01 01:31:35;;;;;;;20.80;10.37;;;;;;;9.75;84.40;99664.16;128276;1088;104407;-74
2021/01/01 01:34:06;;;;;;;23.60;9.80;;;;;;;9.71;84.83;99665.83;128310;1089;104846;-73
2021/01/01 01:36:36;;;;;;;23.10;9.90;;;;;;;9.67;85.06;99663.97;128300;1088;104515;-74
2021/01/01 01:39:06;;;;;;;22.93;10.17;;;;;;;9.63;84.67;99658.61;128260;1089;104503;-73
2021/01/01 01:41:35;;;;;;;21.90;10.63;;;;;;;9.60;84.90;99664.67;128277;1088;104423;-73
2021/01/01 01:44:05;;;;;;;22.40;9.57;;;;;;;9.58;84.42;99658.48;128335;1088;104403;-73
2021/01/01 01:46:41;;;;;;;22.33;10.10;;;;;;;9.56;84.87;99660.19;128271;1088;104397;-73
2021/01/01 01:49:14;;;;;;;22.73;10.07;;;;;;;9.52;84.61;99654.00;127882;1092;104532;-73
2021/01/01 01:51:46;;;;;;;23.00;9.13;;;;;;;9.48;84.49;99652.13;127816;1092;104426;-73
2021/01/01 01:54:19;;;;;;;17.87;7.73;;;;;;;9.44;84.29;99644.15;127801;1092;104535;-75
2021/01/01 01:56:48;;;;;;;18.57;8.60;;;;;;;9.40;84.49;99642.31;127823;1091;104401;-73
2021/01/01 01:59:21;;;;;;;19.10;8.70;;;;;;;9.34;84.43;99636.05;127834;1091;104413;-74
2021/01/01 02:01:50;;;;;;;18.15;8.10;;;;;;;9.31;84.94;99640.33;127868;1091;104464;-73
2021/01/01 02:04:19;;;;;;;22.60;8.40;;;;;;;9.24;84.23;99631.43;127833;1092;104401;-73
2021/01/01 02:06:49;;;;;;;16.23;7.80;;;;;;;9.17;84.89;99626.86;127807;1092;104400;-74
2021/01/01 02:09:18;;;;;;;19.63;8.80;;;;;;;9.12;84.81;99628.48;127849;1091;104477;-75
2021/01/01 02:11:49;;;;;;;16.77;7.57;;;;;;;9.07;84.29;99623.11;127821;1091;104404;-75
2021/01/01 02:14:19;;;;;;;19.03;8.63;;;;;;;9.00;84.70;99614.19;127841;1091;104371;-74
2021/01/01 02:16:49;;;;;;;19.73;8.87;;;;;;;8.95;84.40;99626.27;127829;1092;104407;-72
2021/01/01 02:19:18;;;;;;;20.40;8.53;;;;;;;8.91;84.69;99634.89;127804;1091;104404;-72
2021/01/01 02:21:49;;;;;;;19.47;8.37;;;;;;;8.88;84.66;99632.19;127808;1091;104407;-73
2021/01/01 02:24:18;;;;;;;21.80;8.10;;;;;;;8.87;84.36;99638.25;127855;1092;104519;-74
2021/01/01 02:26:47;;;;;;;20.97;9.40;;;;;;;8.87;84.46;99633.02;127813;1091;103072;-75
2021/01/01 02:29:15;;;;;;;20.27;8.23;;;;;;;8.85;84.90;99647.80;127817;1092;105254;-72
2021/01/01 02:31:45;;;;;;;20.83;9.37;;;;;;;8.85;85.03;99644.27;127797;1091;104474;-72
2021/01/01 02:34:14;;;;;;;16.13;7.73;;;;;;;8.81;84.67;99636.33;127844;1091;104404;-74
2021/01/01 02:36:43;;;;;;;18.03;7.70;;;;;;;8.79;84.34;99647.61;127828;1091;104408;-73
2021/01/01 02:39:12;;;;;;;17.90;7.50;;;;;;;8.77;84.31;99651.89;127844;1091;104535;-73
2021/01/01 02:41:41;;;;;;;18.10;8.03;;;;;;;8.77;84.37;99649.28;127825;1091;104526;-73
2021/01/01 02:44:10;;;;;;;19.60;8.20;;;;;;;8.78;84.76;99648.45;127783;1091;104474;-73
2021/01/01 02:46:39;;;;;;;19.83;8.37;;;;;;;8.75;84.67;99649.23;127795;1091;104536;-74
2021/01/01 02:49:08;;;;;;;19.57;8.10;;;;;;;8.75;84.27;99654.46;128322;1088;104426;-74
2021/01/01 02:51:37;;;;;;;18.50;8.10;;;;;;;8.77;84.86;99659.73;127907;1090;104398;-74
2021/01/01 02:54:07;;;;;;;19.40;7.83;;;;;;;8.77;84.93;99657.13;128318;1089;104852;-74
2021/01/01 02:56:36;;;;;;;19.37;7.97;;;;;;;8.77;84.20;99660.65;128306;1089;104465;-74
2021/01/01 02:59:05;;;;;;;21.65;9.00;;;;;;;8.77;84.16;99667.59;128327;1090;104405;-74
2021/01/01 03:01:34;;;;;;;18.13;7.37;;;;;;;8.73;84.80;99661.39;128306;1089;104404;-73
2021/01/01 03:04:03;;;;;;;16.37;8.07;;;;;;;8.69;84.04;99667.36;128334;1088;104401;-74
2021/01/01 03:06:32;;;;;;;18.70;8.67;;;;;;;8.64;84.31;99664.60;128342;1088;104417;-74
2021/01/01 03:09:01;;;;;;;18.83;7.90;;;;;;;8.63;84.03;99665.47;128315;1089;104582;-72
2021/01/01 03:11:30;;;;;;;17.10;7.63;;;;;;;8.63;84.34;99662.85;128319;1088;104475;-74
2021/01/01 03:13:59;;;;;;;19.83;8.17;;;;;;;8.64;84.19;99666.34;128327;1090;104398;-73
2021/01/01 03:16:28;;;;;;;16.13;7.83;;;;;;;8.67;84.64;99665.56;128317;1088;104429;-73
2021/01/01 03:18:57;;;;;;;17.00;7.63;;;;;;;8.69;83.99;99667.36;128332;1088;104420;-73
2021/01/01 03:21:26;;;;;;;18.70;9.00;;;;;;;8.71;84.77;99670.02;128305;1088;103140;-74
2021/01/01 03:23:55;;;;;;;16.33;8.20;;;;;;;8.75;84.19;99675.39;128356;1089;104580;-73
2021/01/01 03:26:26;;;;;;;20.40;9.37;;;;;;;8.78;84.45;99682.45;128314;1089;104404;-73
2021/01/01 03:28:55;;;;;;;20.20;9.87;;;;;;;8.78;84.00;99675.48;128297;1088;104468;-74
2021/01/01 03:31:24;;;;;;;20.13;9.53;;;;;;;8.75;83.90;99679.75;128356;1088;104417;-73
2021/01/01 03:33:52;;;;;;;20.03;8.27;;;;;;;8.71;84.50;99683.09;128278;1089;104567;-76
2021/01/01 03:36:21;;;;;;;18.00;8.00;;;;;;;8.67;83.88;99691.72;128320;1089;104552;-75
2021/01/01 03:38:52;;;;;;;18.97;8.80;;;;;;;8.67;83.97;99694.33;128299;1090;104580;-74
2021/01/01 03:41:22;;;;;;;20.77;8.47;;;;;;;8.67;84.14;99703.05;127890;1090;104500;-73
2021/01/01 03:43:51;;;;;;;18.47;8.97;;;;;;;8.69;84.32;99700.48;128334;1089;104420;-73
2021/01/01 03:46:20;;;;;;;19.33;8.67;;;;;;;8.68;83.91;99693.47;128306;1089;104407;-74
2021/01/01 03:48:49;;;;;;;17.90;7.80;;;;;;;8.63;83.81;99702.08;127881;1090;104413;-74
2021/01/01 03:51:18;;;;;;;20.20;8.43;;;;;;;8.61;84.60;99684.55;128300;1089;104901;-73
2021/01/01 03:53:46;;;;;;;21.83;8.63;;;;;;;8.58;83.79;99680.11;128330;1088;104576;-74
2021/01/01 03:56:15;;;;;;;20.07;8.13;;;;;;;8.56;83.85;99675.69;128314;1089;104417;-73
2021/01/01 03:58:44;;;;;;;20.53;8.37;;;;;;;8.52;83.72;99679.92;128285;1088;104493;-74
2021/01/01 04:01:16;;;;;;;22.00;8.60;;;;;;;8.45;84.20;99681.47;128350;1088;104400;-74
2021/01/01 04:03:45;;;;;;;19.00;9.20;;;;;;;8.35;84.01;99688.94;128328;1088;104493;-74
2021/01/01 04:06:14;;;;;;;21.65;8.65;;;;;;;8.31;84.27;99697.55;128325;1089;104408;-74
2021/01/01 04:08:43;;;;;;;17.10;7.80;;;;;;;8.31;84.00;99692.31;128323;1088;104554;-74
2021/01/01 04:11:12;;;;;;;18.13;7.90;;;;;;;8.33;84.02;99706.31;128304;1088;104455;-74
2021/01/01 04:13:41;;;;;;;16.53;7.20;;;;;;;8.32;84.12;99714.98;128333;1088;104478;-72
2021/01/01 04:16:10;;;;;;;19.03;8.73;;;;;;;8.34;84.14;99716.81;128341;1088;104397;-72
2021/01/01 04:18:39;;;;;;;17.60;7.93;;;;;;;8.41;84.42;99717.89;128358;1089;104878;-74
2021/01/01 04:21:08;;;;;;;20.43;9.43;;;;;;;8.50;84.28;99728.67;128318;1088;104567;-73
2021/01/01 04:23:37;;;;;;;17.93;8.77;;;;;;;8.56;84.23;99730.61;128294;1088;104948;-73
2021/01/01 04:26:09;;;;;;;24.37;9.37;;;;;;;8.58;84.11;99735.02;128333;1088;104519;-74
2021/01/01 04:28:38;;;;;;;22.63;9.17;;;;;;;8.60;84.45;99738.59;128301;1088;104439;-73
2021/01/01 04:31:07;;;;;;;17.80;7.60;;;;;;;8.63;84.61;99736.08;128344;1089;104400;-73
2021/01/01 04:33:36;;;;;;;21.03;9.17;;;;;;;8.64;83.82;99735.22;128281;1088;104401;-75
2021/01/01 04:36:06;;;;;;;21.53;9.97;;;;;;;8.66;84.45;99744.85;128242;1088;104404;-74
2021/01/01 04:38:35;;;;;;;20.63;9.53;;;;;;;8.66;84.52;99747.47;128351;1089;104536;-74
2021/01/01 04:41:04;;;;;;;18.60;8.53;;;;;;;8.67;84.41;99749.25;128301;1088;104414;-72
2021/01/01 04:43:34;;;;;;;21.83;10.67;;;;;;;8.62;84.42;99749.11;128336;1090;104400;-72
2021/01/01 04:46:05;;;;;;;20.37;9.60;;;;;;;8.60;83.88;99740.30;128295;1088;104469;-72
2021/01/01 04:48:35;;;;;;;23.63;10.47;;;;;;;8.61;83.80;99742.97;128266;1089;104586;-72
2021/01/01 04:51:07;;;;;;;23.17;10.30;;;;;;;8.62;84.49;99744.75;128320;1089;104843;-73
2021/01/01 04:53:38;;;;;;;24.77;11.40;;;;;;;8.64;83.86;99756.14;128302;1089;104455;-72
2021/01/01 04:56:08;;;;;;;21.60;10.73;;;;;;;8.61;83.77;99758.66;128331;1088;104469;-72
2021/01/01 04:58:38;;;;;;;22.63;11.40;;;;;;;8.59;83.96;99764.70;128343;1088;104401;-72
2021/01/01 05:01:07;;;;;;;24.40;11.97;;;;;;;8.56;84.42;99772.45;128298;1088;104531;-72
2021/01/01 05:03:36;;;;;;;19.90;9.70;;;;;;;8.49;83.63;99776.56;128321;1088;104397;-72
2021/01/01 05:06:05;;;;;;;21.97;10.03;;;;;;;8.44;83.65;99786.00;128314;1088;104404;-72
2021/01/01 05:08:34;;;;;;;20.20;9.77;;;;;;;8.42;83.68;99791.14;128304;1089;104403;-72
2021/01/01 05:11:07;;;;;;;24.63;9.97;;;;;;;8.44;84.14;99801.69;128327;1088;104410;-72
2021/01/01 05:13:38;;;;;;;25.50;11.40;;;;;;;8.43;84.25;99797.25;128297;1088;104517;-73
2021/01/01 05:16:18;;;;;;;23.97;10.47;;;;;;;8.44;84.35;99801.69;128314;1088;104411;-72
2021/01/01 05:18:48;;;;;;;22.47;10.27;;;;;;;8.41;84.07;99802.46;128326;1089;104436;-73
2021/01/01 05:21:24;;;;;;;22.50;10.17;;;;;;;8.39;83.74;99790.16;127869;1089;104577;-72
2021/01/01 05:23:55;;;;;;;23.30;9.93;;;;;;;8.39;83.60;99785.81;128329;1089;104471;-73
2021/01/01 05:26:28;;;;;;;22.47;10.37;;;;;;;8.37;83.56;99777.05;128301;1089;104407;-73
2021/01/01 05:29:03;;;;;;;21.45;10.35;;;;;;;8.35;83.49;99778.73;128335;1088;104474;-73
2021/01/01 05:31:33;;;;;;;20.17;11.00;;;;;;;8.33;84.24;99779.50;128315;1088;104394;-73
2021/01/01 05:34:04;;;;;;;21.47;10.73;;;;;;;8.30;83.63;99785.50;128333;1088;104590;-73
2021/01/01 05:36:36;;;;;;;23.93;11.20;;;;;;;8.28;83.95;99792.42;128345;1089;104509;-73
2021/01/01 05:39:08;;;;;;;24.37;11.50;;;;;;;8.23;84.21;99794.87;128283;1088;104532;-73
2021/01/01 05:41:39;;;;;;;23.17;11.00;;;;;;;8.21;83.77;99791.33;127884;1090;104529;-73
2021/01/01 05:44:14;;;;;;;23.70;10.90;;;;;;;8.21;83.84;99799.17;128325;1088;104400;-73
2021/01/01 05:47:04;;;;;;;23.03;10.80;;;;;;;8.23;83.90;99805.33;127905;1089;104587;-73
2021/01/01 05:49:36;;;;;;;21.93;11.27;;;;;;;8.23;84.11;99801.84;127873;1090;104461;-73
2021/01/01 05:52:18;;;;;;;23.30;11.10;;;;;;;8.22;83.79;99808.77;128253;1088;104455;-75
2021/01/01 05:54:50;;;;;;;23.63;11.80;;;;;;;8.21;84.00;99811.33;128258;1088;104576;-73
2021/01/01 05:57:21;;;;;;;21.70;10.70;;;;;;;8.18;83.46;99812.14;128311;1088;104407;-74
2021/01/01 05:59:52;;;;;;;24.80;12.03;;;;;;;8.18;83.84;99819.06;128286;1089;104506;-73
2021/01/01 06:02:23;;;;;;;22.50;11.50;;;;;;;8.20;83.80;99827.88;128311;1089;104716;-74
2021/01/01 06:04:53;;;;;;;23.93;11.77;;;;;;;8.23;83.51;99823.63;128313;1088;104398;-74
2021/01/01 06:07:23;;;;;;;21.87;11.47;;;;;;;8.25;83.58;99819.33;128316;1088;104423;-74
2021/01/01 06:09:54;;;;;;;24.97;12.33;;;;;;;8.31;83.67;99817.78;128310;1088;104529;-74
2021/01/01 06:12:29;;;;;;;24.33;12.17;;;;;;;8.33;83.71;99816.98;128271;1088;104405;-74
2021/01/01 06:15:00;;;;;;;25.73;12.23;;;;;;;8.33;83.97;99826.55;128243;1089;104560;-74
2021/01/01 06:17:48;;;;;;;25.10;11.97;;;;;;;8.30;84.03;99824.72;128237;1089;104532;-73
2021/01/01 06:20:19;;;;;;;25.87;11.77;;;;;;;8.26;83.67;99825.47;127812;1089;104485;-73
2021/01/01 06:23:01;;;;;;;24.20;11.53;;;;;;;8.23;83.24;99825.36;128318;1088;104531;-73
2021/01/01 06:25:30;;;;;;;25.47;11.27;;;;;;;8.24;83.28;99827.12;128323;1088;105130;-73
2021/01/01 06:27:59;;;;;;;22.63;11.47;;;;;;;8.25;83.53;99828.91;127892;1089;104910;-73
2021/01/01 06:30:29;;;;;;;21.37;9.97;;;;;;;8.24;83.23;99833.26;128262;1088;104407;-73
2021/01/01 06:32:58;;;;;;;27.43;12.43;;;;;;;8.20;83.33;99830.48;128312;1089;104469;-73
2021/01/01 06:35:31;;;;;;;24.47;12.73;;;;;;;8.20;83.33;99838.33;128303;1088;104397;-73
2021/01/01 06:38:00;;;;;;;22.23;10.73;;;;;;;8.21;83.65;99833.16;128363;1088;104403;-72
2021/01/01 06:40:38;;;;;;;25.10;12.63;;;;;;;8.20;83.40;99836.59;128288;1088;104532;-74
2021/01/01 06:43:08;;;;;;;24.00;11.87;;;;;;;8.23;83.33;99839.31;128295;1089;104535;-74
2021/01/01 06:45:41;;;;;;;27.00;13.33;;;;;;;8.27;83.35;99849.05;128338;1088;104423;-74
2021/01/01 06:48:34;;;;;;;25.03;12.77;;;;;;;8.30;83.56;99849.98;128322;1091;104420;-74
2021/01/01 06:51:03;;;;;;;25.10;13.50;;;;;;;8.35;83.26;99849.31;127989;1091;104411;-74
2021/01/01 06:53:32;;;;;;;23.87;12.93;;;;;;;8.40;83.29;99857.31;128316;1088;104427;-75
2021/01/01 06:56:10;;;;;;;26.67;13.60;;;;;;;8.45;83.85;99853.15;128314;1088;104403;-74
2021/01/01 06:58:41;;;;;;;25.97;13.07;;;;;;;8.46;83.58;99860.14;128297;1088;104397;-75
2021/01/01 07:01:17;;;;;;;27.13;14.33;;;;;;;8.46;83.92;99867.98;128294;1088;104407;-74
2021/01/01 07:03:53;;;;;;;26.07;13.03;;;;;;;8.51;83.73;99876.89;128330;1088;104468;-75
2021/01/01 07:06:36;;;;;;;26.47;13.47;;;;;;;8.51;83.16;99874.27;128327;1089;104579;-74
2021/01/01 07:09:08;;;;;;;26.13;12.73;;;;;;;8.55;83.87;99873.52;128330;1088;104641;-72
2021/01/01 07:11:41;;;;;;;26.60;12.87;;;;;;;8.61;83.55;99878.96;128333;1088;104532;-72
2021/01/01 07:14:20;;;;;;;24.23;12.40;;;;;;;8.68;83.15;99881.78;127891;1091;104456;-72
2021/01/01 07:16:56;;;;;;;23.87;12.97;;;;;;;8.73;83.33;99878.49;128336;1088;104395;-72
2021/01/01 07:19:25;;;;;;;26.13;13.03;;;;;;;8.81;83.71;99883.98;128346;1089;104420;-73
2021/01/01 07:21:54;;;;;;;24.53;12.20;;;;;;;8.85;83.11;99884.95;128315;1089;104411;-73
2021/01/01 07:24:25;;;;;;;26.43;13.40;;;;;;;8.86;83.67;99887.63;128321;1088;104529;-73
2021/01/01 07:26:56;;;;;;;25.03;12.93;;;;;;;8.88;83.69;99883.36;127882;1088;104541;-73
2021/01/01 07:29:26;;;;;;;26.20;13.83;;;;;;;8.89;83.65;99892.08;128272;1088;104401;-74
2021/01/01 07:31:56;;;;;;;26.90;12.97;;;;;;;8.90;83.43;99886.90;128315;1088;104645;-74
2021/01/01 07:34:25;;;;;;;26.33;12.17;;;;;;;8.94;83.84;99890.48;127904;1089;104446;-73
2021/01/01 07:36:59;;;;;;;23.95;12.85;;;;;;;8.98;83.00;99898.49;128327;1088;104397;-73
2021/01/01 07:39:28;;;;;;;;;;;;;;;9.01;83.54;99895.09;128357;1088;104404;-74
2021/01/01 07:42:06;;;;;;;27.27;13.80;;;;;;;9.06;83.02;99905.72;128331;1088;104602;-73
2021/01/01 07:44:35;;;;;;;24.63;12.70;;;;;;;9.11;83.46;99904.13;128312;1088;104515;-73
2021/01/01 07:47:09;;;;;;;25.97;12.93;;;;;;;9.15;83.64;99903.39;128315;1088;104408;-73
2021/01/01 07:49:37;;;;;;;;;;;;;;;9.19;83.07;99902.63;128336;1089;104401;-73
2021/01/01 07:52:06;;;;;;;23.93;12.83;;;;;;;9.22;83.37;99900.11;128326;1090;104426;-73
2021/01/01 07:54:48;;;;;;;25.97;12.80;;;;;;;9.26;83.50;99903.73;128342;1088;104462;-74
2021/01/01 07:57:24;;;;;;;24.57;12.43;;;;;;;9.34;83.64;99903.11;128324;1089;104879;-75
2021/01/01 07:59:58;;;;;;;24.17;12.50;;;;;;;9.42;82.82;99907.70;128268;1088;104553;-73
2021/01/01 08:02:27;;;;;;;24.33;13.30;;;;;;;9.42;82.71;99902.47;128270;1089;105060;-73
2021/01/01 08:04:56;;;;;;;25.57;13.90;;;;;;;9.42;83.18;99910.33;128222;1089;104403;-74
2021/01/01 08:07:25;;;;;;;25.80;13.03;;;;;;;9.38;82.62;99905.83;128118;1089;104404;-74
2021/01/01 08:09:54;;;;;;;26.20;13.63;;;;;;;9.32;83.18;99904.80;128318;1089;104404;-73
2021/01/01 08:12:23;;;;;;;26.87;12.93;;;;;;;9.30;82.97;99919.59;128313;1088;104621;-73
2021/01/01 08:14:55;;;;;;;25.30;13.07;;;;;;;9.30;82.57;99919.59;128335;1088;104411;-74
2021/01/01 08:17:29;;;;;;;27.67;12.80;;;;;;;9.29;83.20;99919.54;128326;1088;104420;-74
2021/01/01 08:19:58;;;;;;;28.63;14.07;;;;;;;9.27;82.77;99916.87;128321;1088;104408;-74
2021/01/01 08:22:32;;;;;;;27.90;13.50;;;;;;;9.27;82.92;99926.44;128316;1088;104491;-74
2021/01/01 08:25:02;;;;;;;26.77;13.30;;;;;;;9.23;83.21;99922.84;128306;1088;104426;-74
2021/01/01 08:27:32;;;;;;;28.80;12.90;;;;;;;9.20;82.62;99921.86;128329;1088;104410;-74
2021/01/01 08:30:02;;;;;;;22.85;11.65;;;;;;;9.19;82.77;99923.57;128297;1090;104464;-72
2021/01/01 08:32:33;;;;;;;24.43;12.17;;;;;;;9.16;83.12;99927.00;128324;1088;104529;-73
2021/01/01 08:35:03;;;;;;;27.60;12.60;;;;;;;9.20;82.47;99921.86;128212;1088;104547;-74
2021/01/01 08:37:34;;;;;;;24.50;12.70;;;;;;;9.20;82.48;99927.10;128282;1088;105093;-73
2021/01/01 08:40:06;;;;;;;25.10;12.87;;;;;;;9.15;82.90;99921.72;128290;1088;104426;-75
2021/01/01 08:42:36;;;;;;;25.37;12.70;;;;;;;9.15;82.38;99926.95;128225;1089;104417;-73
2021/01/01 08:45:08;;;;;;;25.90;12.50;;;;;;;9.14;83.04;99922.55;128352;1088;104395;-73
2021/01/01 08:47:48;;;;;;;23.73;12.43;;;;;;;9.18;82.49;99933.16;128308;1088;104398;-74
2021/01/01 08:50:23;;;;;;;25.80;13.93;;;;;;;9.21;82.83;99931.47;128274;1088;104397;-73
2021/01/01 08:52:59;;;;;;;26.73;13.33;;;;;;;9.22;82.92;99934.14;128327;1089;102632;-73
2021/01/01 08:55:29;;;;;;;26.80;14.33;;;;;;;9.23;83.04;99925.45;128346;1088;104416;-73
2021/01/01 08:58:09;;;;;;;29.50;13.00;;;;;;;9.32;82.34;99932.73;128343;1088;104535;-73
2021/01/01 09:00:39;;;;;;;26.30;12.97;;;;;;;9.48;82.31;99936.70;128334;1088;104534;-73
2021/01/01 09:03:09;;;;;;;25.10;13.10;;;;;;;9.56;82.18;99935.20;128298;1089;104650;-73
2021/01/01 09:05:38;;;;;;;26.85;12.90;;;;;;;9.67;82.28;99927.67;128330;1088;104398;-73
2021/01/01 09:08:13;;;;;;;27.70;13.33;;;;;;;9.68;82.36;99932.08;128311;1089;104401;-73
2021/01/01 09:10:43;;;;;;;25.37;13.17;;;;;;;9.79;82.57;99937.64;128288;1088;104528;-73
2021/01/01 09:13:26;;;;;;;25.97;13.30;;;;;;;9.81;82.46;99935.95;128247;1088;104567;-75
2021/01/01 09:16:03;;;;;;;25.57;13.17;;;;;;;9.90;82.23;99933.59;128258;1088;104416;-75
2021/01/01 09:18:32;;;;;;;24.60;12.37;;;;;;;10.05;82.36;99930.52;128263;1089;105826;-74
2021/01/01 09:21:12;;;;;;;27.00;12.97;;;;;;;10.16;82.11;99933.44;128263;1088;104395;-73
2021/01/01 09:23:42;;;;;;;25.25;12.30;;;;;;;10.23;82.19;99932.78;128303;1089;104442;-74
2021/01/01 09:26:22;;;;;;;25.37;13.30;;;;;;;10.30;81.82;99936.45;127852;1091;104529;-73
2021/01/01 09:29:01;;;;;;;22.90;12.50;;;;;;;10.34;82.22;99938.36;128315;1088;104398;-74
2021/01/01 09:31:31;;;;;;;24.93;12.50;;;;;;;10.42;81.67;99931.58;128298;1088;104401;-74
2021/01/01 09:34:02;;;;;;;24.00;11.50;;;;;;;10.34;81.19;99928.75;128251;1088;104407;-73
2021/01/01 09:36:34;;;;;;;24.90;11.90;;;;;;;10.23;81.71;99924.91;128210;1088;104436;-74
2021/01/01 09:39:06;;;;;;;22.80;11.23;;;;;;;10.23;81.81;99927.54;128217;1088;104426;-72
2021/01/01 09:41:35;;;;;;;25.30;12.43;;;;;;;10.17;81.58;99920.38;127828;1090;104462;-74
2021/01/01 09:44:05;;;;;;;22.17;11.57;;;;;;;10.20;81.89;99914.34;128235;1089;104436;-74
2021/01/01 09:46:41;;;;;;;23.57;11.77;;;;;;;10.24;81.37;99916.22;128257;1088;104467;-74
2021/01/01 09:49:12;;;;;;;22.03;10.73;;;;;;;10.30;81.91;99918.09;128338;1088;104414;-74
2021/01/01 09:51:42;;;;;;;23.30;11.43;;;;;;;10.32;81.59;99919.93;128291;1089;104543;-75
2021/01/01 09:54:11;;;;;;;23.40;12.60;;;;;;;10.37;81.74;99915.72;128289;1088;104402;-73
2021/01/01 09:56:40;;;;;;;24.73;11.90;;;;;;;10.45;81.75;99915.05;128301;1088;104564;-75
2021/01/01 09:59:09;;;;;;;24.43;10.93;;;;;;;10.46;81.48;99919.46;128324;1089;104401;-74
2021/01/01 10:01:37;;;;;;;21.80;11.70;;;;;;;10.49;81.62;99922.16;128303;1088;104410;-74
2021/01/01 10:04:06;;;;;;;21.07;11.43;;;;;;;10.52;81.32;99922.25;128304;1088;104475;-74
2021/01/01 10:06:35;;;;;;;22.83;12.40;;;;;;;10.52;81.22;99917.00;128252;1089;104595;-74
2021/01/01 10:09:05;;;;;;;22.03;11.07;;;;;;;10.56;81.21;99921.46;128312;1088;104465;-75
2021/01/01 10:11:34;;;;;;;23.93;11.00;;;;;;;10.61;81.19;99914.59;128332;1088;104853;-74
2021/01/01 10:14:03;;;;;;;23.47;11.40;;;;;;;10.65;81.04;99912.95;128307;1088;104465;-72
2021/01/01 10:16:39;;;;;;;22.77;10.63;;;;;;;10.67;80.90;99916.50;128230;1088;104425;-72
2021/01/01 10:19:08;;;;;;;24.23;11.00;;;;;;;10.68;80.76;99918.28;128290;1088;104477;-73
2021/01/01 10:21:37;;;;;;;23.37;11.50;;;;;;;10.64;80.56;99913.80;128298;1088;104426;-75
2021/01/01 10:24:06;;;;;;;20.30;10.07;;;;;;;10.65;81.05;99911.20;128326;1088;104402;-75
2021/01/01 10:26:35;;;;;;;23.37;11.17;;;;;;;10.63;80.80;99920.79;128318;1088;104522;-73
2021/01/01 10:29:04;;;;;;;23.13;10.93;;;;;;;10.63;80.87;99919.88;128314;1088;104535;-74
2021/01/01 10:31:33;;;;;;;17.73;8.67;;;;;;;10.60;80.69;99932.08;128296;1088;105063;-74
2021/01/01 10:34:02;;;;;;;20.53;10.43;;;;;;;10.58;80.73;99922.38;128303;1088;104404;-73
2021/01/01 10:36:31;;;;;;;22.50;11.27;;;;;;;10.62;80.83;99916.38;128308;1089;104576;-75
2021/01/01 10:39:00;;;;;;;20.40;10.60;;;;;;;10.58;80.54;99927.63;128332;1088;104416;-74
2021/01/01 10:41:29;;;;;;;21.37;10.83;;;;;;;10.54;80.74;99928.41;128277;1089;104529;-74
2021/01/01 10:43:58;;;;;;;20.80;10.53;;;;;;;10.47;80.56;99921.22;128299;1088;104449;-73
2021/01/01 10:46:27;;;;;;;22.17;10.70;;;;;;;10.39;80.35;99923.63;128328;1088;104401;-74
2021/01/01 10:48:58;;;;;;;22.57;11.27;;;;;;;10.40;80.41;99930.66;128323;1091;104442;-73
2021/01/01 10:51:27;;;;;;;23.27;11.63;;;;;;;10.39;80.56;99924.54;128336;1088;104472;-74
2021/01/01 10:53:56;;;;;;;22.20;11.30;;;;;;;10.37;80.26;99931.45;128302;1089;104503;-74
2021/01/01 10:56:28;;;;;;;23.50;11.83;;;;;;;10.34;80.44;99940.98;128302;1088;104560;-74
2021/01/01 10:58:56;;;;;;;23.93;12.33;;;;;;;10.34;80.64;99936.61;128349;1088;104394;-74
2021/01/01 11:01:26;;;;;;;22.20;11.27;;;;;;;10.36;80.44;99937.57;128189;1089;104440;-75
2021/01/01 11:03:55;;;;;;;22.70;11.57;;;;;;;10.40;80.72;99939.41;128236;1088;104868;-74
2021/01/01 11:06:24;;;;;;;24.27;11.87;;;;;;;10.45;80.62;99936.03;128270;1089;104583;-75
2021/01/01 11:08:53;;;;;;;22.53;10.97;;;;;;;10.47;80.43;99942.20;127731;1090;104407;-74
2021/01/01 11:11:24;;;;;;;21.13;11.23;;;;;;;10.47;80.23;99948.36;127789;1090;104414;-74
2021/01/01 11:13:57;;;;;;;24.03;11.47;;;;;;;10.45;80.27;99943.91;128301;1088;104850;-74
2021/01/01 12:21:29;;;;;;;21.53;9.47;;;;;;;10.37;79.05;100018.00;128121;1089;104407;-74
2021/01/01 12:24:18;;;;;;;21.97;10.00;;;;;;;10.34;79.23;100022.28;128290;1089;104401;-75
2021/01/01 12:26:48;;;;;;;19.40;9.40;;;;;;;10.33;79.22;100020.49;128238;1088;104676;-75
2021/01/01 12:29:20;;;;;;;18.80;9.03;;;;;;;10.35;79.13;100029.31;128245;1088;104398;-74
2021/01/01 12:31:50;;;;;;;23.07;9.33;;;;;;;10.35;79.14;100024.95;128319;1088;104475;-74